C6550 KVQQ-KVQQ

Flight info

Callsign C6550
Flight time N/A
Altitude 3500
Route VFR
Aircraft AS65/L-SDE2E3FGRY/LB

Departure

Time 2026-04-23 09:20
Airport Cecil Airport (KVQQ)

Arrival

Time N/A
Airport Cecil Airport (KVQQ)
Time Latitude Longitude Altitude Speed Heading
2026-04-23 09:16 30.22016 -81.88709 80 ft 0 kts 89°
2026-04-23 09:19 30.22016 -81.88701 84 ft 4 kts 83°
2026-04-23 09:19 30.22027 -81.88647 129 ft 10 kts 77°
2026-04-23 09:19 30.22033 -81.88530 435 ft 21 kts 90°
2026-04-23 09:20 30.21970 -81.88314 1022 ft 39 kts 119°
2026-04-23 09:20 30.21673 -81.87986 963 ft 82 kts 156°
2026-04-23 09:20 30.21026 -81.88259 920 ft 134 kts 232°
2026-04-23 09:20 30.21211 -81.89350 736 ft 167 kts 322°
2026-04-23 09:21 30.22251 -81.89144 664 ft 169 kts 56°
2026-04-23 09:21 30.22101 -81.87941 761 ft 128 kts 116°
2026-04-23 09:21 30.21866 -81.87247 948 ft 64 kts 121°
2026-04-23 09:21 30.21745 -81.86725 921 ft 84 kts 107°
2026-04-23 09:22 30.21568 -81.85922 928 ft 121 kts 111°
2026-04-23 09:22 30.21233 -81.84917 938 ft 145 kts 118°
2026-04-23 09:22 30.20769 -81.83810 946 ft 159 kts 122°
2026-04-23 09:22 30.20232 -81.82658 959 ft 165 kts 123°
2026-04-23 09:23 30.19673 -81.81505 957 ft 165 kts 123°
2026-04-23 09:23 30.19110 -81.80347 970 ft 165 kts 123°
2026-04-23 09:23 30.18548 -81.79184 965 ft 166 kts 123°
2026-04-23 09:23 30.17988 -81.78018 963 ft 166 kts 123°
2026-04-23 09:24 30.17426 -81.76843 963 ft 167 kts 123°
2026-04-23 09:24 30.16864 -81.75665 963 ft 168 kts 123°
2026-04-23 09:24 30.16309 -81.74500 959 ft 168 kts 123°
2026-04-23 09:24 30.15752 -81.73329 959 ft 168 kts 123°
2026-04-23 09:25 30.15214 -81.72207 948 ft 163 kts 123°
2026-04-23 09:25 30.14698 -81.71144 987 ft 137 kts 124°
2026-04-23 09:25 30.14270 -81.70270 962 ft 119 kts 124°
2026-04-23 09:26 30.13864 -81.69411 957 ft 123 kts 123°
2026-04-23 09:26 30.13399 -81.68603 967 ft 119 kts 141°
2026-04-23 09:26 30.12732 -81.68058 964 ft 117 kts 152°
2026-04-23 09:26 30.12026 -81.67599 961 ft 117 kts 155°
2026-04-23 09:27 30.11382 -81.67012 964 ft 118 kts 140°
2026-04-23 09:27 30.10806 -81.66345 962 ft 116 kts 143°
2026-04-23 09:27 30.10067 -81.66019 959 ft 116 kts 178°
2026-04-23 09:27 30.09534 -81.66116 960 ft 116 kts 199°
2026-04-23 09:28 30.08813 -81.66523 958 ft 115 kts 209°
2026-04-23 09:28 30.08096 -81.66939 957 ft 116 kts 206°
2026-04-23 09:28 30.07362 -81.67321 958 ft 116 kts 204°
2026-04-23 09:28 30.06613 -81.67672 958 ft 116 kts 202°
2026-04-23 09:29 30.05862 -81.68000 960 ft 115 kts 201°
2026-04-23 09:29 30.05070 -81.68113 960 ft 116 kts 176°
2026-04-23 09:29 30.04276 -81.67996 958 ft 115 kts 176°
2026-04-23 09:29 30.03505 -81.68136 958 ft 115 kts 199°
2026-04-23 09:30 30.02756 -81.68473 957 ft 116 kts 204°
2026-04-23 09:30 30.01999 -81.68786 953 ft 116 kts 190°
2026-04-23 09:30 30.01212 -81.68639 955 ft 117 kts 157°
2026-04-23 09:30 30.00637 -81.67988 955 ft 120 kts 124°
2026-04-23 09:31 30.00477 -81.67043 956 ft 123 kts 90°
2026-04-23 09:31 30.00804 -81.66123 952 ft 128 kts 57°
2026-04-23 09:31 30.01526 -81.65530 955 ft 130 kts 23°
2026-04-23 09:31 30.02415 -81.65460 959 ft 126 kts 349°
2026-04-23 09:32 30.03171 -81.65925 965 ft 120 kts 315°
2026-04-23 09:32 30.03538 -81.66705 955 ft 110 kts 279°
2026-04-23 09:32 30.03432 -81.67551 959 ft 106 kts 245°
2026-04-23 09:32 30.03020 -81.68238 957 ft 104 kts 225°
2026-04-23 09:33 30.02437 -81.68714 955 ft 103 kts 205°
2026-04-23 09:33 30.01747 -81.68864 954 ft 102 kts 179°
2026-04-23 09:33 30.01086 -81.68588 954 ft 103 kts 148°
2026-04-23 09:33 30.00664 -81.67920 953 ft 107 kts 115°
2026-04-23 09:34 30.00664 -81.67062 955 ft 111 kts 78°
2026-04-23 09:34 30.01126 -81.66344 955 ft 115 kts 40°
2026-04-23 09:34 30.01881 -81.66063 955 ft 116 kts
2026-04-23 09:34 30.02639 -81.66335 956 ft 115 kts 325°
2026-04-23 09:35 30.03109 -81.67047 956 ft 111 kts 288°
2026-04-23 09:35 30.03117 -81.67906 955 ft 107 kts 250°
2026-04-23 09:35 30.02694 -81.68581 957 ft 103 kts 218°
2026-04-23 09:35 30.02045 -81.68898 955 ft 102 kts 190°
2026-04-23 09:36 30.01351 -81.68792 953 ft 102 kts 160°
2026-04-23 09:36 30.00806 -81.68271 953 ft 105 kts 130°
2026-04-23 09:36 30.00603 -81.67473 954 ft 109 kts 95°
2026-04-23 09:36 30.00829 -81.66651 723 ft 110 kts 58°
2026-04-23 09:37 30.01432 -81.66121 532 ft 111 kts 21°
2026-04-23 09:37 30.02188 -81.66102 452 ft 109 kts 344°
2026-04-23 09:37 30.02911 -81.66312 421 ft 108 kts
2026-04-23 09:37 30.03584 -81.65968 412 ft 108 kts 47°
2026-04-23 09:38 30.03872 -81.65185 403 ft 109 kts 90°
2026-04-23 09:38 30.03625 -81.64388 400 ft 107 kts 134°
2026-04-23 09:38 30.03022 -81.63899 396 ft 107 kts 155°
2026-04-23 09:38 30.02353 -81.63538 396 ft 106 kts 159°
2026-04-23 09:39 30.01677 -81.63195 394 ft 106 kts 159°
2026-04-23 09:39 30.01010 -81.62838 395 ft 106 kts 158°
2026-04-23 09:39 30.00348 -81.62463 395 ft 106 kts 157°
2026-04-23 09:39 29.99645 -81.62298 395 ft 104 kts 189°
2026-04-23 09:40 29.99025 -81.62677 394 ft 103 kts 230°
2026-04-23 09:40 29.98796 -81.63447 394 ft 105 kts 273°
2026-04-23 09:40 29.99102 -81.64196 396 ft 107 kts 317°
2026-04-23 09:40 29.99786 -81.64501 396 ft 109 kts
2026-04-23 09:41 30.00475 -81.64188 397 ft 109 kts 44°
2026-04-23 09:41 30.00797 -81.63422 395 ft 108 kts 88°
2026-04-23 09:41 30.00580 -81.62619 396 ft 107 kts 132°
2026-04-23 09:41 29.99956 -81.62216 395 ft 104 kts 174°
2026-04-23 09:42 29.99265 -81.62386 395 ft 103 kts 213°
2026-04-23 09:42 29.98836 -81.63027 394 ft 104 kts 253°
2026-04-23 09:42 29.98881 -81.63917 374 ft 126 kts 290°
2026-04-23 09:42 29.99426 -81.64697 403 ft 124 kts 327°
2026-04-23 09:43 30.00259 -81.64939 393 ft 127 kts
2026-04-23 09:43 30.01066 -81.64559 395 ft 128 kts 41°
2026-04-23 09:43 30.01520 -81.63705 394 ft 127 kts 79°
2026-04-23 09:43 30.01446 -81.62707 396 ft 126 kts 116°
2026-04-23 09:44 30.00878 -81.61976 394 ft 124 kts 153°
2026-04-23 09:44 30.00052 -81.61793 395 ft 123 kts 190°
2026-04-23 09:44 29.99294 -81.62209 396 ft 122 kts 223°
2026-04-23 09:44 29.98858 -81.63030 394 ft 122 kts 257°
2026-04-23 09:45 29.98938 -81.63995 394 ft 124 kts 294°
2026-04-23 09:45 29.99517 -81.64717 393 ft 126 kts 331°
2026-04-23 09:45 30.00366 -81.64901 393 ft 127 kts
2026-04-23 09:45 30.01154 -81.64465 396 ft 128 kts 45°
2026-04-23 09:46 30.01563 -81.63582 403 ft 123 kts 83°
2026-04-23 09:46 30.01433 -81.62742 409 ft 97 kts 128°
2026-04-23 09:46 30.00912 -81.62326 392 ft 92 kts 165°
2026-04-23 09:46 30.00295 -81.62195 395 ft 91 kts 180°
2026-04-23 09:47 29.99660 -81.62260 395 ft 90 kts 198°
2026-04-23 09:47 29.99121 -81.62605 394 ft 89 kts 225°
2026-04-23 09:47 29.98837 -81.63222 393 ft 90 kts 260°
2026-04-23 09:47 29.98945 -81.63929 394 ft 92 kts 299°
2026-04-23 09:48 29.99428 -81.64403 393 ft 94 kts 339°
2026-04-23 09:48 30.00072 -81.64414 393 ft 95 kts 19°
2026-04-23 09:48 30.00580 -81.63949 395 ft 95 kts 60°
2026-04-23 09:48 30.00717 -81.63221 393 ft 94 kts 100°
2026-04-23 09:49 30.00433 -81.62565 394 ft 92 kts 139°
2026-04-23 09:49 29.99869 -81.62260 395 ft 90 kts 176°
2026-04-23 09:49 29.99270 -81.62410 394 ft 89 kts 212°
2026-04-23 09:49 29.98872 -81.62941 394 ft 89 kts 248°
2026-04-23 09:50 29.98832 -81.63650 394 ft 91 kts 285°
2026-04-23 09:50 29.99202 -81.64239 395 ft 93 kts 318°
2026-04-23 09:50 29.99703 -81.64714 395 ft 93 kts 322°
2026-04-23 09:50 30.00215 -81.65168 394 ft 93 kts 323°
2026-04-23 09:51 30.00765 -81.65671 374 ft 114 kts 321°
2026-04-23 09:51 30.01382 -81.66263 406 ft 111 kts 322°
2026-04-23 09:51 30.01975 -81.66822 394 ft 111 kts 321°
2026-04-23 09:51 30.02545 -81.67417 393 ft 111 kts 308°
2026-04-23 09:52 30.02890 -81.68130 409 ft 91 kts 296°
2026-04-23 09:52 30.03262 -81.68611 402 ft 74 kts 336°
2026-04-23 09:52 30.03737 -81.68607 393 ft 71 kts 23°
2026-04-23 09:52 30.04052 -81.68190 331 ft 71 kts 74°
2026-04-23 09:53 30.03982 -81.67644 300 ft 71 kts 125°
2026-04-23 09:53 30.03587 -81.67350 282 ft 69 kts 174°
2026-04-23 09:53 30.03148 -81.67495 275 ft 67 kts 222°
2026-04-23 09:53 30.02920 -81.67949 271 ft 66 kts 259°
2026-04-23 09:54 30.02984 -81.68466 270 ft 66 kts 298°
2026-04-23 09:54 30.03355 -81.68770 268 ft 69 kts 347°
2026-04-23 09:54 30.03813 -81.68648 268 ft 71 kts 35°
2026-04-23 09:54 30.04045 -81.68168 267 ft 72 kts 85°
2026-04-23 09:55 30.03889 -81.67645 267 ft 70 kts 136°
2026-04-23 09:55 30.03457 -81.67437 267 ft 68 kts 185°
2026-04-23 09:55 30.03051 -81.67666 267 ft 66 kts 231°
2026-04-23 09:55 30.02899 -81.68155 268 ft 66 kts 271°
2026-04-23 09:56 30.03083 -81.68626 266 ft 67 kts 317°
2026-04-23 09:56 30.03527 -81.68788 258 ft 75 kts
2026-04-23 09:56 30.04058 -81.68460 264 ft 95 kts 50°
2026-04-23 09:56 30.04238 -81.67749 269 ft 94 kts 99°
2026-04-23 09:57 30.03910 -81.67123 268 ft 93 kts 148°
2026-04-23 09:57 30.03301 -81.66980 267 ft 90 kts 196°
2026-04-23 09:57 30.02814 -81.67389 267 ft 88 kts 242°
2026-04-23 09:57 30.02747 -81.68073 268 ft 89 kts 287°
2026-04-23 09:58 30.03123 -81.68622 267 ft 90 kts 330°
2026-04-23 09:58 30.03741 -81.68687 266 ft 93 kts 18°
2026-04-23 09:58 30.04212 -81.68200 269 ft 93 kts 67°
2026-04-23 09:58 30.04218 -81.67558 272 ft 74 kts 117°
2026-04-23 09:59 30.03841 -81.67184 266 ft 74 kts 166°
2026-04-23 09:59 30.03355 -81.67259 266 ft 71 kts 214°
2026-04-23 09:59 30.03042 -81.67691 267 ft 71 kts 246°
2026-04-23 09:59 30.02955 -81.68243 267 ft 71 kts 278°
2026-04-23 10:00 30.03211 -81.68716 266 ft 72 kts 324°
2026-04-23 10:00 30.03698 -81.68810 266 ft 75 kts 13°
2026-04-23 10:00 30.04096 -81.68445 267 ft 76 kts 62°
2026-04-23 10:00 30.04127 -81.67851 269 ft 75 kts 112°
2026-04-23 10:01 30.03772 -81.67441 268 ft 74 kts 162°
2026-04-23 10:01 30.03284 -81.67475 268 ft 71 kts 210°
2026-04-23 10:01 30.02967 -81.67894 268 ft 71 kts 250°
2026-04-23 10:01 30.02976 -81.68446 269 ft 71 kts 294°
2026-04-23 10:02 30.03343 -81.68811 268 ft 73 kts 342°
2026-04-23 10:02 30.03836 -81.68736 268 ft 75 kts 31°
2026-04-23 10:02 30.04124 -81.68251 268 ft 76 kts 80°
2026-04-23 10:02 30.04003 -81.67678 269 ft 75 kts 130°
2026-04-23 10:03 30.03563 -81.67410 267 ft 73 kts 179°
2026-04-23 10:03 30.03013 -81.67642 257 ft 98 kts 223°
2026-04-23 10:03 30.02734 -81.68311 271 ft 93 kts 269°
2026-04-23 10:03 30.02970 -81.68990 270 ft 94 kts 315°
2026-04-23 10:04 30.03575 -81.69256 269 ft 97 kts
2026-04-23 10:04 30.04168 -81.68919 268 ft 99 kts 50°
2026-04-23 10:04 30.04363 -81.68180 269 ft 99 kts 98°
2026-04-23 10:04 30.04030 -81.67520 268 ft 97 kts 146°
2026-04-23 10:05 30.03395 -81.67355 268 ft 95 kts 194°
2026-04-23 10:05 30.02868 -81.67773 268 ft 94 kts 240°
2026-04-23 10:05 30.02777 -81.68498 268 ft 94 kts 286°
2026-04-23 10:05 30.03180 -81.69072 267 ft 95 kts 332°
2026-04-23 10:06 30.03822 -81.69126 267 ft 97 kts 19°
2026-04-23 10:06 30.04315 -81.68598 267 ft 100 kts 67°
2026-04-23 10:06 30.04319 -81.67834 269 ft 98 kts 115°
2026-04-23 10:06 30.03839 -81.67310 268 ft 97 kts 163°
2026-04-23 10:07 30.03194 -81.67360 268 ft 95 kts 210°
2026-04-23 10:07 30.02793 -81.67938 268 ft 93 kts 257°
2026-04-23 10:07 30.02887 -81.68649 267 ft 94 kts 302°
2026-04-23 10:07 30.03417 -81.69069 269 ft 96 kts 349°
2026-04-23 10:08 30.04056 -81.68904 268 ft 98 kts 36°
2026-04-23 10:08 30.04395 -81.68241 268 ft 99 kts 84°
2026-04-23 10:08 30.04205 -81.67503 269 ft 98 kts 133°
2026-04-23 10:09 30.03020 -81.67431 268 ft 94 kts 227°
2026-04-23 10:09 30.02784 -81.68108 268 ft 94 kts 272°
2026-04-23 10:09 30.03057 -81.68773 269 ft 95 kts 319°
2026-04-23 10:09 30.03673 -81.68995 267 ft 97 kts
2026-04-23 10:10 30.04249 -81.68616 268 ft 99 kts 53°
2026-04-23 10:10 30.04403 -81.67863 269 ft 99 kts 102°
2026-04-23 10:10 30.04034 -81.67230 268 ft 97 kts 150°
2026-04-23 10:10 30.03392 -81.67114 268 ft 95 kts 198°
2026-04-23 10:11 30.02891 -81.67569 268 ft 94 kts 243°
2026-04-23 10:11 30.02840 -81.68300 268 ft 94 kts 290°
2026-04-23 10:11 30.03275 -81.68845 268 ft 96 kts 336°
2026-04-23 10:11 30.03927 -81.68849 268 ft 98 kts 23°
2026-04-23 10:12 30.04527 -81.68478 267 ft 99 kts 20°
2026-04-23 10:12 30.05183 -81.68267 268 ft 98 kts 13°
2026-04-23 10:12 30.05846 -81.68109 268 ft 98 kts 12°
2026-04-23 10:12 30.06573 -81.67966 257 ft 116 kts
2026-04-23 10:13 30.07352 -81.67818 272 ft 111 kts 11°
2026-04-23 10:13 30.08115 -81.67664 268 ft 112 kts 10°
2026-04-23 10:13 30.08882 -81.67507 269 ft 112 kts 11°
2026-04-23 10:13 30.09647 -81.67348 269 ft 112 kts 11°
2026-04-23 10:14 30.10413 -81.67200 268 ft 112 kts
2026-04-23 10:14 30.11187 -81.67243 270 ft 111 kts 354°
2026-04-23 10:14 30.11694 -81.67315 269 ft 111 kts 353°
2026-04-23 10:14 30.12461 -81.67433 269 ft 111 kts 352°
2026-04-23 10:15 30.13485 -81.67596 264 ft 111 kts 352°
2026-04-23 10:15 30.13992 -81.67691 265 ft 111 kts 345°
2026-04-23 10:15 30.14749 -81.68415 268 ft 109 kts 297°
2026-04-23 10:15 30.14835 -81.69263 269 ft 108 kts 261°
2026-04-23 10:16 30.14622 -81.69788 274 ft 107 kts 236°
2026-04-23 10:16 30.14043 -81.70222 268 ft 101 kts 198°
2026-04-23 10:16 30.13347 -81.70122 274 ft 104 kts 159°
2026-04-23 10:16 30.12825 -81.69546 275 ft 104 kts 130°
2026-04-23 10:17 30.12407 -81.68863 272 ft 104 kts 128°
2026-04-23 10:17 30.11993 -81.68177 271 ft 104 kts 129°
2026-04-23 10:17 30.11524 -81.67550 270 ft 103 kts 147°
2026-04-23 10:17 30.10875 -81.67236 270 ft 101 kts 171°
2026-04-23 10:18 30.10193 -81.67280 269 ft 99 kts 208°
2026-04-23 10:18 30.09728 -81.67834 269 ft 98 kts 249°
2026-04-23 10:18 30.09724 -81.68597 270 ft 97 kts 292°
2026-04-23 10:18 30.10188 -81.69152 269 ft 100 kts 334°
2026-04-23 10:19 30.10855 -81.69349 270 ft 101 kts 351°
2026-04-23 10:19 30.11554 -81.69442 270 ft 101 kts 354°
2026-04-23 10:19 30.12259 -81.69515 270 ft 102 kts 355°
2026-04-23 10:19 30.12964 -81.69595 269 ft 102 kts 354°
2026-04-23 10:20 30.13667 -81.69684 264 ft 102 kts 355°
2026-04-23 10:20 30.14343 -81.69460 267 ft 105 kts 37°
2026-04-23 10:20 30.14701 -81.68746 269 ft 106 kts 83°
2026-04-23 10:20 30.14524 -81.67947 269 ft 104 kts 130°
2026-04-23 10:21 30.14147 -81.67605 270 ft 102 kts 161°